Time;durP1;ratioP1;P1;durP2;ratioP2;P2;SDS_P1;SDS_P2;PMS_P1;PMS_P2;Temp;Humidity;BMP_temperature;BMP_pressure;BME280_temperature;BME280_humidity;BME280_pressure;Samples;Min_cycle;Max_cycle;Signal;HPM_P1;HPM_P2
2021/12/09 00:01:28;;;;;;;18.30;2.63;;;6.00;99.90;;;;;;5019984;28;20065;-75
2021/12/09 00:04:00;;;;;;;21.33;2.90;;;6.00;99.90;;;;;;4989835;28;20050;-72
2021/12/09 00:06:30;;;;;;;14.40;2.35;;;6.00;99.90;;;;;;5004761;28;20053;-73
2021/12/09 00:09:08;;;;;;;18.27;2.75;;;6.00;99.90;;;;;;4986381;28;20402;-74
2021/12/09 00:11:43;;;;;;;21.45;3.13;;;6.00;99.90;;;;;;4982779;28;20058;-74
2021/12/09 00:14:24;;;;;;;17.13;2.60;;;6.00;99.90;;;;;;4967254;28;20055;-74
2021/12/09 00:16:58;;;;;;;20.23;2.65;;;6.00;99.90;;;;;;4968601;28;20115;-73
2021/12/09 00:19:26;;;;;;;15.82;2.42;;;6.00;99.90;;;;;;4967352;28;20414;-73
2021/12/09 00:21:56;;;;;;;15.38;2.88;;;5.90;99.90;;;;;;4999718;28;20054;-73
2021/12/09 00:24:24;;;;;;;18.70;2.60;;;6.00;99.90;;;;;;4986955;28;20046;-72
2021/12/09 00:26:53;;;;;;;17.80;2.67;;;5.90;99.90;;;;;;4987058;28;20058;-73
2021/12/09 00:29:21;;;;;;;22.52;3.15;;;5.90;99.90;;;;;;5004021;28;20042;-73
2021/12/09 00:31:48;;;;;;;19.70;2.60;;;5.90;99.90;;;;;;4988801;28;20038;-73
2021/12/09 00:34:19;;;;;;;19.92;3.03;;;5.90;99.90;;;;;;4989274;28;20046;-73
2021/12/09 00:37:04;;;;;;;23.15;2.63;;;5.90;99.90;;;;;;4987840;28;20054;-73
2021/12/09 00:39:32;;;;;;;20.95;3.08;;;5.90;99.90;;;;;;4971442;28;20089;-75
2021/12/09 00:42:00;;;;;;;26.30;3.78;;;5.90;99.90;;;;;;4988522;28;20055;-76
2021/12/09 00:44:27;;;;;;;27.27;3.33;;;5.90;99.90;;;;;;4988288;28;20054;-74
2021/12/09 00:46:55;;;;;;;23.98;3.55;;;5.90;99.90;;;;;;4988157;28;20061;-75
2021/12/09 00:49:23;;;;;;;24.08;3.10;;;5.90;99.90;;;;;;4988563;28;20109;-73
2021/12/09 00:51:51;;;;;;;19.60;2.63;;;5.90;99.90;;;;;;4987162;28;20050;-74
2021/12/09 00:54:18;;;;;;;23.95;3.70;;;5.90;99.90;;;;;;4987162;28;20467;-74
2021/12/09 00:56:46;;;;;;;27.25;3.58;;;5.90;99.90;;;;;;4988765;28;20058;-74
2021/12/09 00:59:14;;;;;;;24.35;3.45;;;5.90;99.90;;;;;;4988665;28;20050;-73
2021/12/09 01:01:42;;;;;;;25.63;3.30;;;5.80;99.90;;;;;;4988481;28;20039;-74
2021/12/09 01:04:09;;;;;;;20.92;3.15;;;5.80;99.90;;;;;;4987774;28;20058;-74
2021/12/09 01:06:37;;;;;;;28.10;3.95;;;5.90;99.90;;;;;;4986561;28;20085;-74
2021/12/09 01:09:05;;;;;;;16.40;3.33;;;5.90;99.90;;;;;;4988329;28;20101;-73
2021/12/09 01:11:33;;;;;;;26.55;3.47;;;5.90;99.90;;;;;;4988073;28;20057;-72
2021/12/09 01:14:01;;;;;;;19.27;3.35;;;5.80;99.90;;;;;;4985924;28;20053;-74
2021/12/09 01:16:29;;;;;;;21.40;2.92;;;5.80;99.90;;;;;;4985540;28;20042;-74
2021/12/09 01:18:57;;;;;;;24.20;3.03;;;5.90;99.90;;;;;;4988017;28;20058;-73
2021/12/09 01:21:24;;;;;;;21.50;3.35;;;5.90;99.90;;;;;;5002040;28;20050;-73
2021/12/09 01:23:52;;;;;;;22.45;3.05;;;5.90;99.90;;;;;;4987732;28;20042;-74
2021/12/09 01:26:20;;;;;;;19.00;3.55;;;5.90;99.90;;;;;;5002637;28;20790;-73
2021/12/09 01:28:53;;;;;;;20.20;2.63;;;5.90;99.90;;;;;;4986260;28;20049;-72
2021/12/09 01:31:25;;;;;;;24.10;3.67;;;5.90;99.90;;;;;;4985808;28;20051;-73
2021/12/09 01:33:54;;;;;;;21.40;3.17;;;5.90;99.90;;;;;;4987042;28;20058;-73
2021/12/09 01:36:22;;;;;;;19.73;2.85;;;5.90;99.90;;;;;;5017615;28;20051;-73
2021/12/09 01:38:49;;;;;;;24.35;3.28;;;5.90;99.90;;;;;;5002531;28;20050;-73
2021/12/09 01:41:18;;;;;;;24.73;3.40;;;6.00;99.90;;;;;;5002467;28;20053;-74
2021/12/09 01:43:46;;;;;;;20.75;3.25;;;6.00;99.90;;;;;;4987352;28;20510;-73
2021/12/09 01:46:18;;;;;;;18.25;3.58;;;6.00;99.90;;;;;;4969632;28;20054;-74
2021/12/09 01:48:47;;;;;;;21.48;3.03;;;6.00;99.90;;;;;;4987083;28;20054;-73
2021/12/09 01:51:16;;;;;;;24.73;3.28;;;6.00;99.90;;;;;;4987540;28;20110;-74
2021/12/09 01:53:45;;;;;;;18.02;2.63;;;6.10;99.90;;;;;;4986159;28;20058;-73
2021/12/09 01:56:21;;;;;;;20.00;2.97;;;6.00;99.90;;;;;;4987247;28;20053;-73
2021/12/09 01:58:53;;;;;;;20.02;3.63;;;6.00;99.90;;;;;;4986006;28;20419;-73
2021/12/09 02:01:21;;;;;;;16.30;2.65;;;6.10;99.90;;;;;;4987067;28;20046;-74
2021/12/09 02:03:50;;;;;;;23.77;3.05;;;6.00;99.90;;;;;;4987111;28;20509;-74
2021/12/09 02:06:18;;;;;;;22.77;2.88;;;6.00;99.90;;;;;;4980478;28;20160;-73
2021/12/09 02:08:46;;;;;;;;;;;6.00;99.90;;;;;;4986332;28;20065;-72
2021/12/09 02:11:14;;;;;;;17.10;2.63;;;6.10;99.90;;;;;;5018771;28;19996;-72
2021/12/09 02:13:42;;;;;;;24.92;2.90;;;6.10;99.90;;;;;;5001883;28;20574;-74
2021/12/09 02:16:11;;;;;;;21.83;2.90;;;6.10;99.90;;;;;;4986602;28;20058;-73
2021/12/09 02:18:39;;;;;;;28.58;3.13;;;6.10;99.90;;;;;;4985365;28;20061;-72
2021/12/09 02:21:14;;;;;;;18.90;2.97;;;6.10;99.90;;;;;;4986412;28;20050;-73
2021/12/09 02:23:45;;;;;;;24.58;3.17;;;6.10;99.90;;;;;;4982105;28;20042;-73
2021/12/09 02:26:14;;;;;;;20.67;3.30;;;6.10;99.90;;;;;;5001923;28;20072;-73
2021/12/09 02:28:44;;;;;;;25.10;3.05;;;6.10;99.90;;;;;;5018210;28;20459;-73
2021/12/09 02:31:12;;;;;;;23.63;2.95;;;6.10;99.90;;;;;;5001493;28;20448;-74
2021/12/09 02:33:40;;;;;;;14.98;2.85;;;6.10;99.90;;;;;;4986589;28;20073;-73
2021/12/09 02:36:08;;;;;;;26.08;3.13;;;6.20;99.90;;;;;;4986514;28;20046;-74
2021/12/09 02:38:43;;;;;;;14.60;2.90;;;6.10;99.90;;;;;;4986910;28;20065;-74
2021/12/09 02:41:17;;;;;;;19.75;2.70;;;6.10;99.90;;;;;;4985350;28;20046;-72
2021/12/09 02:43:57;;;;;;;19.13;2.42;;;6.10;99.90;;;;;;4985236;28;20491;-74
2021/12/09 02:46:26;;;;;;;20.75;2.53;;;6.10;99.90;;;;;;5001409;28;20042;-73
2021/12/09 02:48:55;;;;;;;21.20;2.70;;;6.10;99.90;;;;;;5018321;28;20065;-73
2021/12/09 02:51:23;;;;;;;20.08;3.00;;;6.10;99.90;;;;;;4986773;28;20065;-74
2021/12/09 02:53:51;;;;;;;;;;;6.10;99.90;;;;;;4987255;28;20055;-74
2021/12/09 02:56:20;;;;;;;17.25;2.75;;;6.10;99.90;;;;;;4987090;28;19929;-73
2021/12/09 02:58:48;;;;;;;24.85;3.15;;;6.10;99.90;;;;;;4986290;28;20077;-74
2021/12/09 03:01:21;;;;;;;17.73;3.30;;;6.10;99.90;;;;;;4987084;28;20039;-73
2021/12/09 03:03:54;;;;;;;26.83;3.17;;;6.10;99.90;;;;;;4986971;28;20054;-73
2021/12/09 03:06:38;;;;;;;20.10;2.95;;;6.10;99.90;;;;;;4985778;28;20066;-73
2021/12/09 03:09:09;;;;;;;25.17;3.42;;;6.00;99.90;;;;;;5017872;28;20057;-74
2021/12/09 03:11:37;;;;;;;22.70;3.47;;;5.90;99.90;;;;;;4969393;28;20499;-74
2021/12/09 03:14:07;;;;;;;20.33;3.03;;;5.90;99.90;;;;;;4985770;28;20101;-73
2021/12/09 03:16:37;;;;;;;20.83;2.60;;;5.80;99.90;;;;;;4986335;28;20046;-74
2021/12/09 03:19:07;;;;;;;20.45;3.15;;;5.80;99.90;;;;;;4985248;28;20069;-73
2021/12/09 03:21:38;;;;;;;21.25;2.80;;;5.70;99.90;;;;;;4986614;28;20073;-74
2021/12/09 03:24:18;;;;;;;19.23;3.10;;;5.60;99.90;;;;;;4985306;28;20057;-73
2021/12/09 03:26:56;;;;;;;25.83;3.15;;;5.60;99.90;;;;;;5001908;28;20054;-73
2021/12/09 03:29:27;;;;;;;24.23;3.20;;;5.50;99.90;;;;;;5017883;28;20069;-73
2021/12/09 03:31:59;;;;;;;21.30;2.72;;;5.50;99.90;;;;;;5017842;28;20559;-73
2021/12/09 03:34:28;;;;;;;20.65;3.00;;;5.50;99.90;;;;;;5017945;28;20066;-73
2021/12/09 03:37:00;;;;;;;28.50;3.05;;;5.50;99.90;;;;;;5001135;28;20054;-74
2021/12/09 03:39:30;;;;;;;17.67;2.60;;;5.40;99.90;;;;;;4968912;28;20150;-73
2021/12/09 03:41:58;;;;;;;17.08;2.65;;;5.40;99.90;;;;;;4987002;28;20053;-75
2021/12/09 03:44:28;;;;;;;19.63;2.83;;;5.40;99.90;;;;;;4986608;28;20051;-73
2021/12/09 03:46:59;;;;;;;21.08;2.88;;;5.40;99.90;;;;;;4985927;28;20046;-74
2021/12/09 03:49:27;;;;;;;23.33;2.72;;;5.30;99.90;;;;;;4986336;28;20046;-73
2021/12/09 03:51:56;;;;;;;23.23;3.13;;;5.30;99.90;;;;;;4986324;28;20463;-74
2021/12/09 03:54:25;;;;;;;24.08;3.05;;;5.30;99.90;;;;;;4986620;28;20047;-73
2021/12/09 03:56:53;;;;;;;15.70;2.83;;;5.30;99.90;;;;;;4986338;28;20066;-73
2021/12/09 03:59:21;;;;;;;23.58;3.13;;;5.30;99.90;;;;;;4989169;28;20043;-74
2021/12/09 04:01:49;;;;;;;;;;;5.30;99.90;;;;;;4989620;28;20050;-74
2021/12/09 04:04:18;;;;;;;;;;;5.40;99.90;;;;;;4989038;28;20676;-73
2021/12/09 04:06:46;;;;;;;17.17;2.53;;;5.40;99.90;;;;;;4988530;28;19961;-73
2021/12/09 04:09:16;;;;;;;21.08;2.75;;;5.40;99.90;;;;;;4988560;28;20054;-74
2021/12/09 04:11:43;;;;;;;19.30;2.97;;;5.40;99.90;;;;;;4988362;28;20053;-73
2021/12/09 04:14:12;;;;;;;11.70;2.20;;;5.40;99.90;;;;;;5021228;28;20058;-73
2021/12/09 04:16:40;;;;;;;22.52;2.50;;;5.40;99.90;;;;;;4989618;28;20046;-73
2021/12/09 04:19:09;;;;;;;22.50;3.42;;;5.40;99.90;;;;;;5004071;28;20053;-75
2021/12/09 04:21:37;;;;;;;;;;;5.40;99.90;;;;;;5003754;28;20119;-74
2021/12/09 04:24:10;;;;;;;20.55;2.78;;;5.40;99.90;;;;;;4989646;28;19926;-74
2021/12/09 04:26:40;;;;;;;18.98;2.63;;;5.40;99.90;;;;;;4988974;28;20046;-74
2021/12/09 04:29:09;;;;;;;20.50;2.95;;;5.40;99.90;;;;;;4987903;28;20081;-74
2021/12/09 04:31:38;;;;;;;18.92;2.97;;;5.40;99.90;;;;;;4989640;28;20050;-73
2021/12/09 04:34:07;;;;;;;18.02;2.60;;;5.30;99.90;;;;;;4989332;28;20053;-73
2021/12/09 04:36:35;;;;;;;15.93;2.10;;;5.30;99.90;;;;;;4987724;28;20062;-74
2021/12/09 04:39:04;;;;;;;21.55;2.85;;;5.30;99.90;;;;;;4988901;28;20054;-75
2021/12/09 04:41:32;;;;;;;17.33;2.50;;;5.30;99.90;;;;;;4988074;28;20046;-75
2021/12/09 04:44:00;;;;;;;;;;;5.30;99.90;;;;;;4989391;28;20380;-74
2021/12/09 04:46:28;;;;;;;15.32;2.17;;;5.20;99.90;;;;;;5004038;28;20321;-75
2021/12/09 04:48:56;;;;;;;17.30;2.65;;;5.20;99.90;;;;;;4988915;28;20054;-74
2021/12/09 04:51:24;;;;;;;22.75;2.70;;;5.20;99.90;;;;;;4988904;28;20054;-74
2021/12/09 04:53:52;;;;;;;23.52;2.20;;;5.20;99.90;;;;;;4988825;28;20057;-74
2021/12/09 04:56:20;;;;;;;20.45;2.58;;;5.20;99.90;;;;;;4988947;28;20062;-75
2021/12/09 04:58:48;;;;;;;19.17;2.38;;;5.20;99.90;;;;;;4988742;28;20046;-75
2021/12/09 05:01:16;;;;;;;;;;;5.20;99.90;;;;;;4987180;28;20050;-75
2021/12/09 05:03:47;;;;;;;29.10;2.88;;;5.20;99.90;;;;;;4989022;28;20370;-75
2021/12/09 05:06:16;;;;;;;22.15;2.53;;;5.20;99.90;;;;;;4988441;28;20057;-74
2021/12/09 05:08:47;;;;;;;21.05;2.33;;;5.20;99.90;;;;;;4988460;28;20050;-74
2021/12/09 05:13:55;;;;;;;20.45;2.50;;;5.20;99.90;;;;;;5020028;28;20574;-73
2021/12/09 05:16:23;;;;;;;;;;;5.10;99.90;;;;;;4987655;28;20418;-73
2021/12/09 05:18:57;;;;;;;10.32;2.17;;;5.10;99.90;;;;;;4986846;28;19932;-74
2021/12/09 05:21:37;;;;;;;25.23;3.00;;;5.10;99.90;;;;;;5020187;28;20057;-75
2021/12/09 05:24:11;;;;;;;20.55;2.50;;;5.10;99.90;;;;;;4988319;28;20407;-73
2021/12/09 05:26:52;;;;;;;16.85;2.33;;;5.10;99.90;;;;;;4988075;28;20050;-73
2021/12/09 05:29:22;;;;;;;21.90;2.55;;;4.90;99.90;;;;;;4988390;28;20047;-73
2021/12/09 05:32:08;;;;;;;21.52;2.45;;;5.10;99.90;;;;;;5019662;28;20062;-74
2021/12/09 05:34:55;;;;;;;17.58;2.28;;;5.10;99.90;;;;;;4970767;28;20053;-74
2021/12/09 05:37:24;;;;;;;17.75;2.65;;;5.00;99.90;;;;;;5002519;28;20070;-73
2021/12/09 05:39:54;;;;;;;18.88;2.70;;;5.10;99.90;;;;;;5003407;28;20051;-73
2021/12/09 05:42:24;;;;;;;12.43;2.17;;;5.00;99.90;;;;;;4966609;28;20047;-72
2021/12/09 05:44:52;;;;;;;17.85;2.47;;;5.00;99.90;;;;;;4983180;28;20059;-73
2021/12/09 05:47:20;;;;;;;21.38;2.85;;;5.00;99.90;;;;;;4999061;28;20051;-76
2021/12/09 05:49:48;;;;;;;;;;;4.80;99.90;;;;;;4967721;28;20061;-75
2021/12/09 05:52:17;;;;;;;26.35;2.80;;;4.90;99.90;;;;;;4983041;28;19937;-73
2021/12/09 05:54:45;;;;;;;26.58;2.78;;;4.80;99.90;;;;;;4983427;28;20046;-72
2021/12/09 05:57:12;;;;;;;19.52;2.60;;;4.80;99.90;;;;;;5018876;28;20059;-72
2021/12/09 05:59:41;;;;;;;17.05;2.58;;;4.70;99.90;;;;;;4987110;28;20050;-74
2021/12/09 06:02:13;;;;;;;21.83;2.22;;;4.70;99.90;;;;;;4987321;28;20105;-73
2021/12/09 06:04:42;;;;;;;16.40;2.75;;;4.70;99.90;;;;;;5002069;28;20053;-73
2021/12/09 06:07:11;;;;;;;19.00;2.33;;;4.70;99.90;;;;;;4969642;28;20058;-72
2021/12/09 06:09:39;;;;;;;18.08;2.50;;;4.70;99.90;;;;;;5018040;28;20387;-74
2021/12/09 06:12:08;;;;;;;19.67;2.30;;;4.70;99.90;;;;;;4985950;28;20054;-73
2021/12/09 06:14:36;;;;;;;22.50;2.92;;;4.70;99.90;;;;;;4985649;28;20050;-75
2021/12/09 06:17:03;;;;;;;21.98;2.65;;;4.60;99.90;;;;;;4985724;28;20054;-74
2021/12/09 06:19:31;;;;;;;;;;;4.60;99.90;;;;;;4985547;28;20053;-73
2021/12/09 06:22:00;;;;;;;19.23;2.78;;;4.50;99.90;;;;;;4986250;28;19925;-73
2021/12/09 06:24:27;;;;;;;17.80;2.45;;;4.50;99.90;;;;;;4986623;28;20054;-74
2021/12/09 06:26:55;;;;;;;19.45;2.38;;;4.50;99.90;;;;;;4985433;28;20478;-72
2021/12/09 06:29:22;;;;;;;24.77;2.70;;;4.50;99.90;;;;;;5001715;28;20487;-74
2021/12/09 06:31:50;;;;;;;;;;;4.40;99.90;;;;;;5001952;28;20054;-72
2021/12/09 06:34:18;;;;;;;18.77;2.65;;;4.40;99.90;;;;;;4986686;28;19926;-74
2021/12/09 06:36:46;;;;;;;21.33;2.90;;;4.40;99.90;;;;;;5000581;28;20062;-74
2021/12/09 06:39:14;;;;;;;15.65;2.83;;;4.30;99.90;;;;;;5001571;28;20069;-73
2021/12/09 06:41:41;;;;;;;19.50;2.50;;;4.30;99.90;;;;;;5001392;28;20046;-73
2021/12/09 06:44:09;;;;;;;27.88;2.83;;;4.30;99.90;;;;;;4985094;28;20054;-72
2021/12/09 06:46:37;;;;;;;19.38;2.20;;;4.30;99.90;;;;;;4984862;28;20065;-74
2021/12/09 06:49:05;;;;;;;28.83;2.38;;;4.30;99.90;;;;;;4986176;28;20054;-73
2021/12/09 06:51:33;;;;;;;;;;;4.30;99.90;;;;;;5017798;28;20054;-72
2021/12/09 06:54:00;;;;;;;22.38;2.53;;;4.30;99.90;;;;;;4986324;28;19926;-72
2021/12/09 06:56:32;;;;;;;26.50;3.08;;;4.30;99.90;;;;;;4986159;28;20606;-74
2021/12/09 06:59:00;;;;;;;16.30;2.25;;;4.30;99.90;;;;;;4986471;28;20870;-72
2021/12/09 07:01:37;;;;;;;21.85;2.75;;;4.20;99.90;;;;;;5017271;28;20054;-75
2021/12/09 07:04:08;;;;;;;20.15;2.78;;;4.20;99.90;;;;;;4986291;28;20058;-73
2021/12/09 07:06:37;;;;;;;22.75;2.65;;;4.10;99.90;;;;;;5001188;28;20057;-74
2021/12/09 07:09:05;;;;;;;18.88;2.50;;;4.10;99.90;;;;;;4968887;28;20372;-74
2021/12/09 07:11:39;;;;;;;21.23;2.80;;;4.10;99.90;;;;;;4984975;28;20046;-73
2021/12/09 07:14:07;;;;;;;;;;;4.10;99.90;;;;;;4985460;28;20077;-72
2021/12/09 07:16:35;;;;;;;15.25;2.10;;;4.10;99.90;;;;;;4986353;28;20445;-72
2021/12/09 07:19:03;;;;;;;23.27;2.47;;;4.10;99.90;;;;;;4984839;28;20062;-73
2021/12/09 07:21:31;;;;;;;17.90;2.45;;;4.00;99.90;;;;;;5000908;28;20050;-73
2021/12/09 07:23:59;;;;;;;18.27;2.53;;;4.00;99.90;;;;;;4986046;28;20395;-75
2021/12/09 07:26:28;;;;;;;13.10;2.15;;;4.00;99.90;;;;;;4986221;28;20058;-73
2021/12/09 07:28:57;;;;;;;16.30;2.33;;;4.00;99.90;;;;;;4986199;28;20134;-74
2021/12/09 07:31:26;;;;;;;20.58;2.88;;;4.00;99.90;;;;;;5017025;28;20050;-74
2021/12/09 07:33:56;;;;;;;27.60;2.70;;;4.00;99.90;;;;;;4988421;28;20497;-74
2021/12/09 07:36:24;;;;;;;17.70;2.72;;;4.00;99.90;;;;;;5004878;28;20153;-73
2021/12/09 07:38:52;;;;;;;21.60;2.72;;;4.10;99.90;;;;;;4988824;28;20061;-72
2021/12/09 07:41:21;;;;;;;21.50;3.10;;;4.10;99.90;;;;;;4989884;28;20058;-73
2021/12/09 07:43:49;;;;;;;21.27;2.60;;;4.10;99.90;;;;;;4988490;28;20063;-72
2021/12/09 07:46:18;;;;;;;18.27;2.67;;;4.10;99.90;;;;;;4990070;28;20054;-73
2021/12/09 07:48:46;;;;;;;24.23;2.80;;;4.10;99.90;;;;;;4988274;28;20049;-73
2021/12/09 07:51:13;;;;;;;18.63;2.90;;;4.10;99.90;;;;;;5004631;28;20050;-72
2021/12/09 07:53:41;;;;;;;17.52;2.40;;;4.10;99.90;;;;;;4989342;28;20613;-74
2021/12/09 07:56:09;;;;;;;18.17;2.60;;;4.10;99.90;;;;;;4989492;28;20058;-73
2021/12/09 07:58:37;;;;;;;16.15;2.30;;;4.10;99.90;;;;;;5020774;28;20047;-74
2021/12/09 08:01:05;;;;;;;15.63;2.15;;;4.10;99.90;;;;;;4987253;28;20042;-73
2021/12/09 08:03:33;;;;;;;26.50;2.63;;;4.10;99.90;;;;;;4987728;28;20049;-74
2021/12/09 08:06:01;;;;;;;19.73;2.40;;;4.10;99.90;;;;;;4978081;28;20054;-73
2021/12/09 08:08:29;;;;;;;20.25;2.42;;;4.10;99.90;;;;;;4984867;28;20051;-75
2021/12/09 08:10:58;;;;;;;14.52;2.30;;;4.20;99.90;;;;;;4966720;28;20174;-74
2021/12/09 08:13:27;;;;;;;16.60;2.33;;;4.20;99.90;;;;;;5007533;28;20049;-73
2021/12/09 08:15:55;;;;;;;15.88;2.03;;;4.20;99.90;;;;;;4987361;28;20088;-74
2021/12/09 08:20:54;;;;;;;16.98;2.28;;;4.30;99.90;;;;;;4983785;28;20058;-74
2021/12/09 08:23:23;;;;;;;13.35;2.03;;;4.40;99.90;;;;;;5010171;28;20047;-74
2021/12/09 08:25:52;;;;;;;17.17;2.10;;;4.50;99.90;;;;;;4985574;28;20069;-74
2021/12/09 08:28:20;;;;;;;17.58;2.50;;;4.50;99.90;;;;;;4999768;28;20058;-74
2021/12/09 08:30:50;;;;;;;;;;;4.60;99.90;;;;;;5016886;28;20050;-74
2021/12/09 08:33:21;;;;;;;15.77;2.55;;;4.70;99.90;;;;;;4971068;28;19933;-74
2021/12/09 08:35:49;;;;;;;16.15;2.25;;;4.70;99.90;;;;;;4994603;28;20043;-74
2021/12/09 08:38:17;;;;;;;;;;;4.80;99.90;;;;;;4976242;28;20057;-73
2021/12/09 08:40:47;;;;;;;15.82;2.15;;;4.80;99.90;;;;;;4983636;28;20461;-74
2021/12/09 08:43:15;;;;;;;16.67;2.30;;;4.80;99.90;;;;;;4984161;28;20050;-74
2021/12/09 08:45:44;;;;;;;22.08;2.70;;;4.90;99.90;;;;;;4986652;28;20042;-75
2021/12/09 08:48:12;;;;;;;17.05;2.25;;;4.90;99.90;;;;;;4986950;28;20057;-74
2021/12/09 08:50:43;;;;;;;15.38;2.25;;;5.00;99.90;;;;;;4983920;28;20122;-74
2021/12/09 08:53:14;;;;;;;13.88;2.20;;;5.00;99.90;;;;;;4980146;28;20422;-72
2021/12/09 08:55:43;;;;;;;25.58;2.72;;;5.10;99.90;;;;;;4982357;28;20050;-72
2021/12/09 08:58:13;;;;;;;21.40;2.83;;;5.10;99.90;;;;;;4986636;28;20062;-73
2021/12/09 09:00:45;;;;;;;15.95;2.60;;;5.20;99.90;;;;;;4996045;28;20061;-73
2021/12/09 09:03:14;;;;;;;17.92;3.10;;;5.20;99.90;;;;;;4968148;28;20070;-75
2021/12/09 09:05:42;;;;;;;21.92;2.67;;;5.30;99.90;;;;;;4986172;28;20050;-73
2021/12/09 09:08:10;;;;;;;16.80;2.40;;;5.20;99.90;;;;;;4988041;28;20058;-74
2021/12/09 09:10:41;;;;;;;24.38;2.90;;;5.40;99.90;;;;;;4986869;28;20504;-74
2021/12/09 09:13:10;;;;;;;18.75;3.05;;;5.40;99.90;;;;;;4987850;28;20558;-73
2021/12/09 09:15:38;;;;;;;31.48;3.50;;;5.40;99.90;;;;;;4967431;28;20054;-73
2021/12/09 09:18:07;;;;;;;20.73;2.65;;;5.50;99.90;;;;;;4967300;28;20086;-74
2021/12/09 09:20:39;;;;;;;;;;;5.50;99.90;;;;;;4987479;28;20049;-74
2021/12/09 09:23:11;;;;;;;18.05;3.03;;;5.50;99.90;;;;;;4981629;28;19929;-73
2021/12/09 09:25:39;;;;;;;20.10;2.35;;;5.50;99.90;;;;;;4986158;28;20038;-75
2021/12/09 09:28:08;;;;;;;20.75;2.60;;;5.50;99.90;;;;;;5012234;28;20046;-74
2021/12/09 09:30:39;;;;;;;22.13;2.60;;;5.50;99.90;;;;;;4967036;28;20058;-73
2021/12/09 09:33:10;;;;;;;18.60;2.65;;;5.60;99.90;;;;;;4985112;28;20047;-73
2021/12/09 09:35:40;;;;;;;19.15;2.72;;;5.60;99.90;;;;;;4983721;28;20061;-74
2021/12/09 09:38:08;;;;;;;25.00;2.53;;;5.60;99.90;;;;;;4981927;28;20065;-74
2021/12/09 09:40:51;;;;;;;18.05;3.00;;;5.60;99.90;;;;;;4951418;28;20046;-74
2021/12/09 09:43:43;;;;;;;18.88;2.78;;;5.70;99.90;;;;;;4982330;28;20070;-75
2021/12/09 09:46:20;;;;;;;27.52;2.75;;;5.60;99.90;;;;;;4976582;28;20059;-74
2021/12/09 09:48:55;;;;;;;20.25;2.58;;;5.70;99.90;;;;;;4981129;28;20054;-74
2021/12/09 09:51:26;;;;;;;15.00;2.40;;;5.70;99.90;;;;;;4984017;28;20063;-76
2021/12/09 09:53:54;;;;;;;16.70;2.47;;;5.80;99.90;;;;;;4985707;28;20597;-75
2021/12/09 09:56:24;;;;;;;27.42;2.80;;;5.80;99.90;;;;;;5000792;28;20050;-76
2021/12/09 09:58:56;;;;;;;17.00;2.85;;;5.80;99.90;;;;;;4986328;28;20051;-75
2021/12/09 10:01:26;;;;;;;23.42;3.00;;;5.80;99.90;;;;;;4997816;28;20065;-78
2021/12/09 10:04:14;;;;;;;23.10;2.80;;;5.90;99.90;;;;;;4981395;28;20057;-73
2021/12/09 10:06:45;;;;;;;18.02;2.65;;;5.90;99.90;;;;;;4999936;28;20053;-75
2021/12/09 10:09:14;;;;;;;17.85;2.80;;;6.00;99.90;;;;;;4985939;28;20050;-77
2021/12/09 10:11:43;;;;;;;18.83;2.78;;;6.10;99.90;;;;;;4986420;28;20046;-77
2021/12/09 10:14:18;;;;;;;22.15;2.60;;;6.20;99.90;;;;;;4985636;28;20046;-75
2021/12/09 10:17:03;;;;;;;14.95;2.40;;;6.30;99.90;;;;;;4998778;28;20053;-73
2021/12/09 10:19:33;;;;;;;20.88;3.10;;;6.40;99.90;;;;;;4984150;28;20046;-73
2021/12/09 10:22:11;;;;;;;20.65;3.38;;;6.40;99.90;;;;;;4984403;28;20050;-77
2021/12/09 10:24:41;;;;;;;16.25;2.67;;;6.50;99.90;;;;;;4984240;28;21032;-78
2021/12/09 10:27:22;;;;;;;15.90;2.55;;;6.70;99.90;;;;;;4986374;28;20519;-78
2021/12/09 10:29:51;;;;;;;23.60;2.95;;;6.80;99.90;;;;;;5000563;28;20042;-76
2021/12/09 10:32:29;;;;;;;25.50;3.33;;;7.00;99.90;;;;;;4985259;28;20065;-75
2021/12/09 10:35:06;;;;;;;18.00;3.10;;;7.30;99.90;;;;;;4986319;28;20046;-77
2021/12/09 10:37:36;;;;;;;24.17;4.00;;;7.70;99.90;;;;;;4986199;28;20054;-77
2021/12/09 10:40:19;;;;;;;22.05;3.25;;;8.10;99.90;;;;;;4985563;28;20042;-76
2021/12/09 10:42:50;;;;;;;20.90;3.53;;;8.30;99.90;;;;;;4982948;28;20057;-78
2021/12/09 10:45:23;;;;;;;21.33;3.67;;;8.50;99.90;;;;;;4982234;28;20049;-76
2021/12/09 10:48:32;;;;;;;21.20;3.95;;;8.40;99.90;;;;;;4984665;28;20496;-75
2021/12/09 10:56:06;;;;;;;17.48;3.53;;;8.30;99.90;;;;;;4984833;28;20042;-75
2021/12/09 10:58:39;;;;;;;19.48;3.20;;;8.40;99.90;;;;;;4973080;28;20050;-76
2021/12/09 11:01:13;;;;;;;15.98;3.05;;;8.70;99.90;;;;;;5000524;28;20051;-75
2021/12/09 11:03:41;;;;;;;17.75;3.70;;;8.90;99.90;;;;;;4985643;28;20054;-77
2021/12/09 11:06:15;;;;;;;25.85;3.70;;;9.10;99.90;;;;;;4981739;28;20055;-76
2021/12/09 11:08:50;;;;;;;16.83;3.15;;;9.30;99.90;;;;;;4976384;28;20046;-73
2021/12/09 11:11:33;;;;;;;25.42;2.85;;;9.30;99.90;;;;;;4989955;28;20050;-73
2021/12/09 11:14:11;;;;;;;19.00;3.38;;;9.30;99.90;;;;;;4998883;28;20424;-73
2021/12/09 11:16:44;;;;;;;16.95;3.17;;;9.20;99.90;;;;;;5002023;28;20038;-73
2021/12/09 11:19:17;;;;;;;22.33;3.22;;;9.30;99.90;;;;;;4970419;28;20238;-73
2021/12/09 11:21:57;;;;;;;17.77;3.00;;;9.70;99.90;;;;;;5017217;28;20050;-74
2021/12/09 11:24:30;;;;;;;14.35;2.92;;;10.30;99.90;;;;;;4989995;28;20058;-73
2021/12/09 11:27:03;;;;;;;16.15;2.70;;;10.90;99.90;;;;;;4988861;28;20057;-74
2021/12/09 11:29:42;;;;;;;16.92;3.05;;;11.40;99.90;;;;;;5005458;28;20042;-74
2021/12/09 11:32:40;;;;;;;15.55;3.45;;;12.00;99.90;;;;;;5020826;28;20058;-74
2021/12/09 11:35:21;;;;;;;14.07;3.30;;;12.50;99.90;;;;;;4987672;28;20058;-74
2021/12/09 11:40:42;;;;;;;17.83;4.05;;;13.60;99.90;;;;;;4970724;28;20038;-74
2021/12/09 11:43:20;;;;;;;16.83;5.35;;;14.00;99.90;;;;;;4984872;28;20503;-73
2021/12/09 11:45:51;;;;;;;23.23;5.25;;;14.30;99.70;;;;;;4988999;28;20402;-73
2021/12/09 11:48:19;;;;;;;16.15;3.92;;;14.70;99.90;;;;;;4975203;28;20046;-73
2021/12/09 11:50:49;;;;;;;17.17;3.78;;;14.90;99.00;;;;;;4989604;28;20051;-74
2021/12/09 11:53:20;;;;;;;11.23;3.58;;;15.20;99.20;;;;;;5004404;28;20054;-73
2021/12/09 11:56:04;;;;;;;16.48;3.50;;;15.50;98.90;;;;;;4989804;28;20414;-73
2021/12/09 11:58:39;;;;;;;15.48;3.53;;;15.90;97.50;;;;;;4989360;28;20042;-74
2021/12/09 12:07:57;;;;;;;15.20;3.35;;;15.70;95.20;;;;;;4969210;28;20050;-73
2021/12/09 12:13:44;;;;;;;15.40;3.13;;;14.40;94.60;;;;;;4989535;28;20065;-73
2021/12/09 12:16:48;;;;;;;12.10;3.25;;;14.00;94.60;;;;;;5004257;28;20045;-74
2021/12/09 12:22:07;;;;;;;15.90;2.88;;;13.20;95.80;;;;;;4988472;28;20042;-73
2021/12/09 12:27:30;;;;;;;14.88;2.42;;;12.40;96.30;;;;;;4987278;28;20069;-73
2021/12/09 12:35:50;;;;;;;23.15;3.08;;;11.20;97.00;;;;;;4988836;28;20058;-74
2021/12/09 12:40:58;;;;;;;20.20;2.58;;;10.80;98.30;;;;;;4988928;28;20046;-74
2021/12/09 12:43:30;;;;;;;16.48;2.72;;;10.60;98.60;;;;;;4987559;28;20051;-73
2021/12/09 12:46:17;;;;;;;18.42;2.53;;;10.50;98.90;;;;;;4987031;28;20043;-73
2021/12/09 12:54:26;;;;;;;15.23;3.08;;;10.00;99.60;;;;;;4986677;28;20050;-72
2021/12/09 12:56:58;;;;;;;18.48;3.25;;;9.80;99.90;;;;;;4988467;28;20061;-74
2021/12/09 12:59:33;;;;;;;16.35;2.88;;;9.70;99.90;;;;;;4987213;28;20050;-73
2021/12/09 13:02:03;;;;;;;17.88;3.08;;;9.70;99.90;;;;;;5003167;28;20050;-74
2021/12/09 13:04:50;;;;;;;17.02;2.80;;;9.80;99.90;;;;;;5019768;28;20499;-73
2021/12/09 13:07:32;;;;;;;24.00;3.60;;;9.80;99.90;;;;;;5006326;28;20392;-74
2021/12/09 13:10:24;;;;;;;17.58;3.33;;;9.90;99.90;;;;;;4985232;28;20404;-75
2021/12/09 13:13:17;;;;;;;17.02;2.88;;;9.90;99.90;;;;;;4987145;28;20057;-73
2021/12/09 13:16:18;;;;;;;16.40;2.35;;;9.90;99.90;;;;;;4986920;28;20629;-75
2021/12/09 13:21:54;;;;;;;14.18;2.30;;;10.00;99.90;;;;;;5006937;28;20046;-75
2021/12/09 13:24:33;;;;;;;13.30;2.67;;;9.90;99.90;;;;;;4986482;28;20039;-73
2021/12/09 13:30:01;;;;;;;16.38;3.38;;;10.00;99.90;;;;;;4997958;28;19933;-72
2021/12/09 13:33:12;;;;;;;22.70;3.22;;;10.00;99.90;;;;;;4985734;28;20038;-73
2021/12/09 13:47:15;;;;;;;19.08;2.38;;;10.30;99.90;;;;;;4987496;28;20054;-73
2021/12/09 13:55:12;;;;;;;13.30;2.65;;;10.60;99.90;;;;;;4984235;28;20050;-73
2021/12/09 13:57:49;;;;;;;22.15;3.40;;;10.70;99.90;;;;;;4997593;28;20074;-74
2021/12/09 14:00:26;;;;;;;18.35;2.90;;;10.60;99.90;;;;;;4984981;28;20412;-74
2021/12/09 14:02:56;;;;;;;15.73;2.92;;;10.50;99.90;;;;;;4985160;28;20430;-73
2021/12/09 14:05:35;;;;;;;16.05;2.50;;;10.40;99.90;;;;;;4998123;28;20061;-73
2021/12/09 14:08:07;;;;;;;13.27;2.33;;;10.20;99.90;;;;;;4985912;28;20042;-73
2021/12/09 14:10:38;;;;;;;12.10;2.55;;;10.20;99.90;;;;;;4992746;28;20502;-72
2021/12/09 14:13:13;;;;;;;21.02;2.70;;;10.10;99.90;;;;;;4985726;28;20054;-72
2021/12/09 14:16:00;;;;;;;18.10;3.30;;;10.20;99.90;;;;;;4968401;28;20046;-72
2021/12/09 14:18:38;;;;;;;22.80;4.65;;;10.60;99.90;;;;;;5018208;28;20054;-73